Time;durP1;ratioP1;P1;durP2;ratioP2;P2;SDS_P1;SDS_P2;PMS_P1;PMS_P2;Temp;Humidity;BMP_temperature;BMP_pressure;BME280_temperature;BME280_humidity;BME280_pressure;Samples;Min_cycle;Max_cycle;Signal;HPM_P1;HPM_P2
2022/10/16 00:01:22;;;;;;;10.00;6.28;;;;;;;5.10;66.39;100270.66;5073400;28;20037;-59
2022/10/16 00:03:49;;;;;;;10.75;5.88;;;;;;;5.09;66.59;100279.50;5076359;28;20071;-61
2022/10/16 00:06:16;;;;;;;11.38;5.82;;;;;;;5.05;66.63;100278.25;5073334;28;20477;-61
2022/10/16 00:08:43;;;;;;;9.63;5.32;;;;;;;5.04;66.49;100279.25;5090570;28;20073;-61
2022/10/16 00:11:15;;;;;;;9.40;5.63;;;;;;;5.04;66.45;100281.88;5092379;28;20040;-60
2022/10/16 00:13:42;;;;;;;8.13;5.03;;;;;;;5.03;66.27;100281.06;5092949;28;20063;-61
2022/10/16 00:16:09;;;;;;;7.88;5.38;;;;;;;4.99;66.50;100287.66;5075061;28;20508;-61
2022/10/16 00:18:36;;;;;;;9.05;5.13;;;;;;;4.97;67.25;100281.75;5091552;28;20044;-61
2022/10/16 00:21:04;;;;;;;9.80;5.80;;;;;;;4.94;67.01;100282.97;5093378;28;20040;-59
2022/10/16 00:23:57;;;;;;;10.32;5.43;;;;;;;4.93;67.20;100288.38;5093678;28;20075;-59
2022/10/16 00:26:23;;;;;;;9.52;5.05;;;;;;;4.93;67.52;100291.00;5092973;28;20040;-59
2022/10/16 00:28:50;;;;;;;9.57;5.60;;;;;;;4.90;66.88;100299.25;5093133;28;20126;-61
2022/10/16 00:31:16;;;;;;;9.15;5.82;;;;;;;4.88;67.35;100298.59;5089847;28;20044;-61
2022/10/16 00:33:42;;;;;;;9.43;5.70;;;;;;;4.86;67.47;100301.41;5092846;28;20106;-61
2022/10/16 00:36:11;;;;;;;9.60;5.50;;;;;;;4.86;67.04;100290.91;5092504;28;20071;-62
2022/10/16 00:38:40;;;;;;;8.88;5.15;;;;;;;4.85;67.29;100301.56;5093115;28;20087;-61
2022/10/16 00:41:09;;;;;;;10.10;5.55;;;;;;;4.83;67.44;100298.34;5091170;28;20047;-61
2022/10/16 00:43:46;;;;;;;12.88;5.88;;;;;;;4.79;67.62;100300.47;5058145;28;20046;-62
2022/10/16 00:46:16;;;;;;;8.05;5.00;;;;;;;4.79;67.62;100303.09;5092309;28;20044;-61
2022/10/16 00:48:47;;;;;;;11.37;5.80;;;;;;;4.81;67.70;100301.13;5092956;28;20047;-61
2022/10/16 00:51:13;;;;;;;9.73;5.32;;;;;;;4.80;67.29;100303.94;5090829;28;20278;-61
2022/10/16 00:53:39;;;;;;;10.02;5.55;;;;;;;4.77;67.31;100305.91;5092814;28;20101;-61
2022/10/16 00:56:05;;;;;;;11.50;5.75;;;;;;;4.75;67.74;100307.91;5092150;28;20048;-60
2022/10/16 00:58:31;;;;;;;9.82;5.78;;;;;;;4.73;68.48;100306.44;5091101;28;20039;-61
2022/10/16 01:00:57;;;;;;;13.38;5.63;;;;;;;4.67;68.47;100309.78;5091147;28;20047;-60
2022/10/16 01:03:34;;;;;;;9.15;5.30;;;;;;;4.67;68.36;100307.16;5092552;28;20048;-61
2022/10/16 01:06:23;;;;;;;9.65;5.78;;;;;;;4.66;67.95;100311.59;5092047;28;20040;-62
2022/10/16 01:09:07;;;;;;;8.98;5.35;;;;;;;4.66;68.15;100308.16;5091272;28;20096;-61
2022/10/16 01:11:45;;;;;;;9.70;5.95;;;;;;;4.63;67.94;100305.88;5092149;28;20394;-61
2022/10/16 01:14:30;;;;;;;12.32;6.15;;;;;;;4.57;68.19;100302.13;5090676;28;20067;-61
2022/10/16 01:17:01;;;;;;;8.90;5.20;;;;;;;4.60;68.88;100312.28;5091796;28;20505;-61
2022/10/16 01:19:45;;;;;;;;;;;;;;;4.58;68.22;100313.44;5091396;28;20040;-60
2022/10/16 01:22:11;;;;;;;12.55;6.88;;;;;;;4.55;68.21;100312.81;5091998;28;20368;-59
2022/10/16 01:24:41;;;;;;;11.88;5.70;;;;;;;4.55;68.76;100314.63;5091727;28;20032;-61
2022/10/16 01:27:13;;;;;;;8.45;5.20;;;;;;;4.52;68.46;100318.41;5090511;28;20032;-60
2022/10/16 01:30:10;;;;;;;8.77;5.53;;;;;;;4.51;68.22;100319.41;5090326;28;20062;-60
2022/10/16 01:32:42;;;;;;;12.18;5.63;;;;;;;4.50;68.83;100316.94;5090635;28;20064;-61
2022/10/16 01:35:13;;;;;;;9.25;5.38;;;;;;;4.51;68.84;100311.53;5091537;28;20047;-60
2022/10/16 01:38:09;;;;;;;8.02;5.05;;;;;;;4.51;68.58;100318.59;5091428;28;20057;-61
2022/10/16 01:40:37;;;;;;;9.57;5.88;;;;;;;4.50;69.02;100322.19;5069508;28;20524;-62
2022/10/16 01:43:05;;;;;;;12.10;5.72;;;;;;;4.49;68.67;100323.19;5069752;28;20032;-62
2022/10/16 01:45:33;;;;;;;9.77;6.20;;;;;;;4.46;68.78;100315.66;5080451;28;20040;-61
2022/10/16 01:48:00;;;;;;;9.05;5.40;;;;;;;4.48;68.74;100325.00;5090213;28;20036;-61
2022/10/16 01:50:26;;;;;;;12.40;5.97;;;;;;;4.44;69.39;100322.91;5091484;28;20044;-62
2022/10/16 01:52:52;;;;;;;9.77;5.70;;;;;;;4.41;69.22;100320.63;5090004;28;20048;-62
2022/10/16 01:55:23;;;;;;;9.07;5.03;;;;;;;4.41;69.18;100321.47;5090173;28;20401;-62
2022/10/16 01:57:50;;;;;;;10.13;5.05;;;;;;;4.37;69.09;100308.84;5073239;28;20074;-63
2022/10/16 02:00:17;;;;;;;10.00;5.13;;;;;;;4.41;68.86;100328.50;5089893;28;20412;-62
2022/10/16 02:02:47;;;;;;;9.70;5.65;;;;;;;4.36;68.73;100321.16;5091671;28;20040;-62
2022/10/16 02:05:59;;;;;;;11.32;5.60;;;;;;;4.38;69.32;100320.97;5090905;28;20032;-61
2022/10/16 02:08:28;;;;;;;7.05;4.95;;;;;;;4.36;69.46;100318.53;5085688;28;20047;-61
2022/10/16 02:10:55;;;;;;;11.73;5.85;;;;;;;4.34;69.54;100323.13;5090151;28;20047;-61
2022/10/16 02:13:53;;;;;;;10.20;6.03;;;;;;;4.31;69.40;100328.72;5089459;28;20523;-61
2022/10/16 02:16:19;;;;;;;11.05;6.00;;;;;;;4.30;69.72;100319.22;5087358;28;20044;-60
2022/10/16 02:18:45;;;;;;;11.43;5.53;;;;;;;4.26;69.46;100326.59;5091549;28;20416;-61
2022/10/16 02:21:24;;;;;;;10.30;5.60;;;;;;;4.26;70.04;100323.97;5089591;28;20044;-61
2022/10/16 02:24:15;;;;;;;17.67;5.55;;;;;;;4.26;69.91;100321.34;5090156;28;20048;-60
2022/10/16 02:26:54;;;;;;;11.07;5.70;;;;;;;4.26;70.27;100328.41;5072885;28;20036;-61
2022/10/16 02:29:25;;;;;;;7.63;5.07;;;;;;;4.26;69.94;100328.41;5089706;28;20496;-61
2022/10/16 02:31:55;;;;;;;11.35;5.63;;;;;;;4.25;69.97;100335.47;5091206;28;20408;-61
2022/10/16 02:34:22;;;;;;;15.60;6.30;;;;;;;4.25;69.56;100335.47;5072694;28;20497;-61
2022/10/16 02:36:48;;;;;;;12.00;5.50;;;;;;;4.22;70.36;100338.44;5089626;28;20067;-61
2022/10/16 02:39:15;;;;;;;11.60;6.82;;;;;;;4.19;69.78;100338.78;5073131;28;20047;-60
2022/10/16 02:41:40;;;;;;;12.98;6.15;;;;;;;4.16;70.00;100333.91;5073138;28;20366;-60
2022/10/16 02:44:06;;;;;;;11.02;5.45;;;;;;;4.14;70.12;100332.44;5091438;28;20036;-62
2022/10/16 02:46:32;;;;;;;8.88;5.70;;;;;;;4.15;70.31;100334.06;5089441;28;20040;-61
2022/10/16 02:48:57;;;;;;;11.93;5.63;;;;;;;4.13;69.89;100329.00;5091207;28;20044;-61
2022/10/16 02:51:23;;;;;;;9.63;5.13;;;;;;;4.12;70.46;100337.88;5090523;28;20566;-61
2022/10/16 02:53:48;;;;;;;7.95;5.25;;;;;;;4.10;70.60;100337.22;5089611;28;20048;-61
2022/10/16 02:56:14;;;;;;;9.25;5.85;;;;;;;4.09;70.16;100335.59;5092901;28;20032;-60
2022/10/16 02:58:40;;;;;;;7.70;5.30;;;;;;;4.09;70.19;100341.66;5094994;28;20040;-60
2022/10/16 03:01:05;;;;;;;10.63;5.60;;;;;;;4.06;70.52;100338.56;5092704;28;20533;-61
2022/10/16 03:03:31;;;;;;;11.63;6.55;;;;;;;4.02;70.70;100342.50;5094177;28;20046;-60
2022/10/16 03:05:56;;;;;;;9.38;5.57;;;;;;;4.01;70.67;100339.06;5094496;28;20043;-61
2022/10/16 03:08:24;;;;;;;9.77;5.35;;;;;;;4.00;70.57;100339.22;5093464;28;20609;-61
2022/10/16 03:10:50;;;;;;;9.70;5.22;;;;;;;3.98;70.63;100343.84;5093156;28;20047;-61
2022/10/16 03:13:16;;;;;;;14.38;5.60;;;;;;;3.96;71.05;100348.44;5094332;28;20063;-61
2022/10/16 03:15:42;;;;;;;10.30;5.40;;;;;;;3.96;71.09;100356.28;5072687;28;20036;-61
2022/10/16 03:18:09;;;;;;;10.85;5.78;;;;;;;3.98;70.28;100359.56;5074539;28;20047;-62
2022/10/16 03:20:34;;;;;;;8.32;5.50;;;;;;;3.96;70.68;100354.47;5084998;28;20036;-59
2022/10/16 03:23:02;;;;;;;9.65;5.47;;;;;;;3.97;70.58;100355.28;5093438;28;20059;-61
2022/10/16 03:25:27;;;;;;;10.15;5.13;;;;;;;3.96;71.06;100356.28;5094125;28;20039;-60
2022/10/16 03:27:53;;;;;;;12.10;5.90;;;;;;;3.92;70.86;100352.38;5094402;28;20525;-61
2022/10/16 03:30:19;;;;;;;11.85;5.70;;;;;;;3.93;70.99;100359.25;5094093;28;20050;-61
2022/10/16 03:32:44;;;;;;;14.98;5.78;;;;;;;3.91;71.11;100358.59;5094347;28;20139;-61
2022/10/16 03:35:10;;;;;;;9.30;5.55;;;;;;;3.89;71.17;100357.97;5093916;28;20036;-62
2022/10/16 03:37:36;;;;;;;9.25;5.28;;;;;;;3.88;71.26;100359.75;5093932;28;20344;-60
2022/10/16 03:40:02;;;;;;;7.78;5.07;;;;;;;3.85;71.38;100354.84;5072536;28;20044;-60
2022/10/16 03:42:29;;;;;;;7.85;4.72;;;;;;;3.84;71.06;100361.09;5074172;28;20049;-60
2022/10/16 03:44:55;;;;;;;11.77;5.93;;;;;;;3.84;71.24;100367.16;5078948;28;20074;-61
2022/10/16 03:47:23;;;;;;;10.85;5.65;;;;;;;3.78;71.45;100359.16;5093943;28;20052;-60
2022/10/16 03:49:49;;;;;;;11.95;5.43;;;;;;;3.79;71.33;100368.66;5093664;28;20039;-61
2022/10/16 03:52:14;;;;;;;11.32;5.50;;;;;;;3.75;71.44;100372.59;5093978;28;20131;-62
2022/10/16 03:54:40;;;;;;;13.50;5.68;;;;;;;3.70;71.78;100362.59;5093549;28;20479;-60
2022/10/16 03:57:06;;;;;;;14.45;6.10;;;;;;;3.70;71.65;100367.84;5093588;28;20081;-60
2022/10/16 03:59:32;;;;;;;8.85;5.10;;;;;;;3.69;72.01;100368.84;5093486;28;20036;-62
2022/10/16 04:01:57;;;;;;;11.38;5.85;;;;;;;3.70;72.08;100373.09;5093519;28;20047;-62
2022/10/16 04:04:24;;;;;;;11.15;5.55;;;;;;;3.69;71.86;100368.84;5093774;28;20043;-60
2022/10/16 04:06:51;;;;;;;8.93;5.38;;;;;;;3.68;72.53;100364.59;5093262;28;20054;-62
2022/10/16 04:09:16;;;;;;;11.40;5.97;;;;;;;3.68;72.10;100372.47;5092212;28;20056;-61
2022/10/16 04:11:42;;;;;;;13.70;6.32;;;;;;;3.69;71.99;100368.03;5093499;28;20040;-60
2022/10/16 04:14:08;;;;;;;15.18;6.63;;;;;;;3.68;71.98;100367.22;5093767;28;20071;-61
2022/10/16 04:16:33;;;;;;;14.70;6.95;;;;;;;3.69;71.92;100368.84;5093395;28;20064;-61
2022/10/16 04:18:59;;;;;;;12.93;6.53;;;;;;;3.70;72.07;100369.66;5075394;28;20051;-61
2022/10/16 04:21:25;;;;;;;12.27;6.07;;;;;;;3.70;72.05;100364.41;5093340;28;20040;-61
2022/10/16 04:23:50;;;;;;;11.63;6.32;;;;;;;3.71;72.10;100371.31;5092272;28;20416;-61
2022/10/16 04:26:16;;;;;;;10.93;6.45;;;;;;;3.75;72.46;100368.16;5093340;28;20492;-62
2022/10/16 04:28:41;;;;;;;8.85;5.60;;;;;;;3.77;71.96;100371.44;5093546;28;20501;-61
2022/10/16 04:31:07;;;;;;;9.65;5.95;;;;;;;3.80;71.65;100380.78;5092821;28;20582;-61
2022/10/16 04:33:33;;;;;;;9.85;5.35;;;;;;;3.77;71.50;100368.00;5091830;28;20048;-60
2022/10/16 04:36:00;;;;;;;12.13;5.90;;;;;;;3.81;71.64;100374.53;5093044;28;20043;-60
2022/10/16 04:38:26;;;;;;;14.45;5.90;;;;;;;3.81;72.33;100374.53;5091924;28;20043;-61
2022/10/16 04:40:52;;;;;;;7.68;5.20;;;;;;;3.82;72.07;100369.16;5092740;28;20044;-59
2022/10/16 04:43:17;;;;;;;10.07;5.25;;;;;;;3.89;72.20;100376.34;5074893;28;20048;-62
2022/10/16 04:45:43;;;;;;;11.45;5.85;;;;;;;3.87;72.04;100366.00;5071068;28;20036;-61
2022/10/16 04:48:09;;;;;;;14.50;7.97;;;;;;;3.98;71.69;100380.56;5072584;28;20040;-61
2022/10/16 04:50:34;;;;;;;12.80;6.30;;;;;;;4.03;71.36;100381.69;5083307;28;20043;-61
2022/10/16 04:53:05;;;;;;;12.30;5.87;;;;;;;4.04;70.99;100378.06;5091508;28;20052;-62
2022/10/16 04:55:31;;;;;;;10.90;5.32;;;;;;;4.08;71.18;100378.53;5092374;28;20697;-60
2022/10/16 04:57:56;;;;;;;10.95;5.15;;;;;;;4.13;70.68;100383.28;5091344;28;20040;-61
2022/10/16 05:00:22;;;;;;;11.20;5.70;;;;;;;4.17;70.34;100389.81;5092203;28;20040;-61
2022/10/16 05:02:50;;;;;;;13.63;5.45;;;;;;;4.21;70.20;100384.06;5092632;28;20401;-62
2022/10/16 05:05:15;;;;;;;9.68;5.20;;;;;;;4.27;70.20;100385.19;5092062;28;20497;-62
2022/10/16 05:07:41;;;;;;;10.38;5.38;;;;;;;4.34;70.41;100391.38;5092618;28;20174;-62
2022/10/16 05:10:07;;;;;;;8.88;5.35;;;;;;;4.30;70.35;100374.34;5092113;28;20412;-61
2022/10/16 05:12:33;;;;;;;10.25;5.10;;;;;;;4.31;69.87;100384.66;5091159;28;20035;-61
2022/10/16 05:14:59;;;;;;;9.43;5.57;;;;;;;4.35;69.96;100392.19;5091943;28;20051;-61
2022/10/16 05:17:25;;;;;;;8.05;5.25;;;;;;;4.41;69.71;100392.34;5092021;28;20051;-61
2022/10/16 05:19:51;;;;;;;12.90;5.35;;;;;;;4.42;69.55;100386.09;5091261;28;20493;-61
2022/10/16 05:22:17;;;;;;;10.50;5.60;;;;;;;4.52;69.88;100391.13;5091025;28;20048;-61
2022/10/16 05:24:43;;;;;;;8.63;5.38;;;;;;;4.57;69.51;100393.22;5090526;28;20085;-61
2022/10/16 05:27:10;;;;;;;7.55;5.20;;;;;;;4.63;68.88;100397.78;5090551;28;20522;-61
2022/10/16 05:29:36;;;;;;;10.45;5.45;;;;;;;4.62;69.25;100399.59;5091731;28;20040;-61
2022/10/16 05:32:02;;;;;;;9.98;5.22;;;;;;;4.63;68.94;100398.59;5091817;28;20050;-61
2022/10/16 05:34:27;;;;;;;9.35;5.55;;;;;;;4.70;69.25;100401.34;5091631;28;20068;-61
2022/10/16 05:36:53;;;;;;;10.25;5.50;;;;;;;4.74;68.83;100398.22;5090377;28;20035;-61
2022/10/16 05:39:19;;;;;;;13.35;5.85;;;;;;;4.80;68.29;100404.56;5092039;28;20040;-61
2022/10/16 05:41:44;;;;;;;12.90;5.55;;;;;;;4.89;67.78;100408.78;5091610;28;20044;-62
2022/10/16 05:44:10;;;;;;;12.20;5.53;;;;;;;4.98;67.73;100404.28;5092256;28;20044;-61
2022/10/16 05:46:36;;;;;;;9.57;5.40;;;;;;;4.98;67.54;100405.09;5091444;28;20040;-61
2022/10/16 05:49:02;;;;;;;13.40;7.68;;;;;;;5.02;67.41;100416.06;5073639;28;20048;-62
2022/10/16 05:51:27;;;;;;;14.48;6.05;;;;;;;5.04;66.91;100410.66;5091152;28;20043;-61
2022/10/16 05:53:53;;;;;;;9.57;5.72;;;;;;;5.03;67.50;100409.84;5091985;28;20157;-62
2022/10/16 05:56:19;;;;;;;9.65;5.30;;;;;;;5.06;67.09;100417.38;5091383;28;20032;-63
2022/10/16 05:58:45;;;;;;;9.45;5.18;;;;;;;5.11;67.92;100416.81;5091761;28;20052;-62
2022/10/16 06:01:13;;;;;;;9.30;6.03;;;;;;;5.14;67.49;100417.28;5089737;28;20131;-61
2022/10/16 06:03:39;;;;;;;10.00;5.80;;;;;;;5.17;66.71;100419.56;5090217;28;20050;-57
2022/10/16 06:06:16;;;;;;;13.75;6.03;;;;;;;5.15;67.44;100418.94;5089813;28;20044;-60
2022/10/16 06:08:43;;;;;;;10.35;5.72;;;;;;;5.22;67.41;100419.03;5073476;28;20047;-59
2022/10/16 06:11:11;;;;;;;9.30;5.43;;;;;;;5.32;66.93;100416.97;5089656;28;20036;-66
2022/10/16 06:13:38;;;;;;;12.52;6.05;;;;;;;5.35;66.46;100418.41;5090859;28;20075;-60
2022/10/16 06:16:04;;;;;;;9.20;6.00;;;;;;;5.38;66.77;100420.69;5076752;28;20131;-60
2022/10/16 06:18:30;;;;;;;9.20;5.60;;;;;;;5.40;66.50;100414.25;5071153;28;20041;-61
2022/10/16 06:20:57;;;;;;;9.05;5.50;;;;;;;5.45;65.84;100419.81;5083259;28;20512;-60
2022/10/16 06:23:24;;;;;;;9.27;5.85;;;;;;;5.50;65.88;100418.44;5089665;28;20044;-61
2022/10/16 06:25:49;;;;;;;19.38;9.95;;;;;;;5.52;66.03;100421.72;5036028;28;20450;-61
2022/10/16 06:28:15;;;;;;;12.30;6.38;;;;;;;5.55;66.25;100419.56;5071125;28;20055;-65
2022/10/16 06:30:43;;;;;;;9.70;5.68;;;;;;;5.62;65.86;100422.31;5084745;28;20070;-62
2022/10/16 06:33:10;;;;;;;13.05;5.72;;;;;;;5.66;66.30;100421.75;5086392;28;20036;-64
2022/10/16 06:35:36;;;;;;;10.40;6.40;;;;;;;5.74;65.60;100418.22;5067378;28;20134;-64
2022/10/16 06:38:01;;;;;;;12.38;6.70;;;;;;;5.80;65.32;100424.59;5095185;28;20127;-63
2022/10/16 06:40:27;;;;;;;10.40;5.35;;;;;;;5.79;65.03;100417.66;5094914;28;20040;-64
2022/10/16 06:42:56;;;;;;;12.48;6.03;;;;;;;5.90;64.98;100433.00;5093824;28;20047;-63
2022/10/16 06:45:22;;;;;;;11.80;6.60;;;;;;;5.93;64.79;100430.06;5094046;28;20152;-64
2022/10/16 06:47:47;;;;;;;10.80;5.88;;;;;;;5.97;64.50;100433.13;5094561;28;20047;-64
2022/10/16 06:50:13;;;;;;;7.65;5.32;;;;;;;5.96;64.43;100424.44;5094447;28;20062;-64
2022/10/16 06:52:39;;;;;;;8.50;5.63;;;;;;;6.03;64.78;100435.03;5076254;28;20508;-65
2022/10/16 06:55:05;;;;;;;10.93;5.90;;;;;;;6.00;64.72;100433.59;5094082;28;20130;-65
2022/10/16 06:57:31;;;;;;;12.82;7.38;;;;;;;6.04;64.43;100432.22;5094957;28;20126;-64
2022/10/16 06:59:58;;;;;;;9.52;6.20;;;;;;;6.14;64.33;100429.31;5072178;28;20322;-63
2022/10/16 07:02:24;;;;;;;11.43;6.05;;;;;;;6.18;63.67;100438.50;5072759;28;20482;-64
2022/10/16 07:04:49;;;;;;;13.38;6.30;;;;;;;6.19;63.82;100434.84;5077150;28;20071;-64
2022/10/16 07:07:15;;;;;;;8.90;6.00;;;;;;;6.19;63.62;100434.03;5094363;28;20055;-64
2022/10/16 07:09:40;;;;;;;11.68;5.70;;;;;;;6.25;63.90;100441.22;5058985;28;20039;-64
2022/10/16 07:12:06;;;;;;;10.10;5.53;;;;;;;6.28;63.76;100433.75;5093006;28;20093;-64
2022/10/16 07:14:32;;;;;;;10.25;5.85;;;;;;;6.34;63.50;100433.03;5093911;28;20082;-65
2022/10/16 07:16:57;;;;;;;7.38;5.22;;;;;;;6.35;63.54;100433.84;5075949;28;20051;-64
2022/10/16 07:19:23;;;;;;;9.68;5.72;;;;;;;6.41;63.65;100435.72;5075594;28;20156;-63
2022/10/16 07:21:50;;;;;;;8.57;5.13;;;;;;;6.47;63.14;100434.16;5093676;28;20224;-63
2022/10/16 07:24:16;;;;;;;13.05;6.03;;;;;;;6.53;63.37;100430.78;5075923;28;20062;-65
2022/10/16 07:26:43;;;;;;;10.60;5.88;;;;;;;6.58;63.09;100433.69;5072226;28;20036;-64
2022/10/16 07:29:18;;;;;;;11.95;5.97;;;;;;;6.63;62.54;100435.78;5072300;28;20044;-64
2022/10/16 07:31:44;;;;;;;11.02;6.03;;;;;;;6.74;62.24;100443.22;5073522;28;20040;-64
2022/10/16 07:34:11;;;;;;;12.68;6.38;;;;;;;6.81;61.83;100444.91;5074074;28;20053;-65
2022/10/16 07:36:37;;;;;;;15.85;6.20;;;;;;;6.89;61.67;100449.25;5091367;28;20560;-65
2022/10/16 07:39:03;;;;;;;7.43;5.45;;;;;;;6.89;61.84;100448.44;5093997;28;20104;-64
2022/10/16 07:41:28;;;;;;;9.02;5.55;;;;;;;6.93;61.70;100441.78;5092953;28;20043;-65
2022/10/16 07:43:56;;;;;;;7.97;5.78;;;;;;;6.96;61.49;100442.22;5093857;28;20246;-65
2022/10/16 07:46:22;;;;;;;9.98;5.88;;;;;;;7.08;61.03;100447.00;5071667;28;20044;-64
2022/10/16 07:48:48;;;;;;;9.07;5.22;;;;;;;7.08;60.67;100453.06;5072217;28;20450;-66
2022/10/16 07:51:19;;;;;;;12.30;6.32;;;;;;;7.16;61.09;100455.59;5087821;28;20374;-65
2022/10/16 07:53:46;;;;;;;8.90;5.65;;;;;;;7.16;61.28;100449.50;5092324;28;20047;-64
2022/10/16 07:56:12;;;;;;;12.10;6.32;;;;;;;7.14;61.11;100448.88;5071586;28;20420;-68
2022/10/16 07:58:38;;;;;;;10.77;6.07;;;;;;;7.23;60.89;100450.38;5038772;28;20036;-65
2022/10/16 08:01:07;;;;;;;7.97;5.53;;;;;;;7.27;60.75;100449.00;5087210;28;20051;-67
2022/10/16 08:03:33;;;;;;;11.05;6.07;;;;;;;7.36;60.71;100454.97;5092292;28;20048;-67
2022/10/16 08:05:59;;;;;;;9.30;5.72;;;;;;;7.39;60.47;100454.59;5093255;28;20067;-66
2022/10/16 08:08:25;;;;;;;8.40;5.72;;;;;;;7.49;60.75;100462.97;5093517;28;20131;-68
2022/10/16 08:10:51;;;;;;;12.15;6.55;;;;;;;7.55;60.39;100462.22;5091908;28;20182;-67
2022/10/16 08:13:16;;;;;;;12.55;5.90;;;;;;;7.61;60.64;100456.16;5093484;28;20070;-67
2022/10/16 08:15:43;;;;;;;9.82;5.85;;;;;;;7.67;60.43;100450.13;5092291;28;20032;-65
2022/10/16 08:18:10;;;;;;;11.60;6.05;;;;;;;7.68;60.47;100441.22;5091965;28;20036;-66
2022/10/16 08:20:35;;;;;;;9.45;5.95;;;;;;;7.79;59.64;100449.59;5092617;28;20493;-66
2022/10/16 08:23:01;;;;;;;11.55;6.28;;;;;;;7.85;60.04;100448.81;5092937;28;20055;-65
2022/10/16 08:25:27;;;;;;;14.35;6.10;;;;;;;7.83;59.49;100442.94;5092701;28;20489;-65
2022/10/16 08:27:53;;;;;;;13.05;6.13;;;;;;;7.91;60.16;100440.97;5091588;28;20051;-64
2022/10/16 08:30:21;;;;;;;10.68;6.03;;;;;;;7.98;59.88;100443.63;5091086;28;20048;-65
2022/10/16 08:32:47;;;;;;;12.60;5.47;;;;;;;8.02;59.15;100438.78;5091649;28;20059;-64
2022/10/16 08:35:14;;;;;;;10.48;5.68;;;;;;;8.08;59.15;100440.63;5070902;28;20037;-64
2022/10/16 08:37:41;;;;;;;9.75;5.80;;;;;;;8.17;59.11;100447.38;5072484;28;20052;-65
2022/10/16 08:40:23;;;;;;;10.35;5.78;;;;;;;8.24;58.41;100442.16;5079075;28;20040;-65
2022/10/16 08:43:10;;;;;;;12.65;6.35;;;;;;;8.33;58.75;100446.25;5074758;28;20450;-63
2022/10/16 08:45:45;;;;;;;13.20;5.95;;;;;;;8.37;58.29;100444.84;5092117;28;20040;-64
2022/10/16 08:48:39;;;;;;;11.13;6.47;;;;;;;8.43;58.67;100443.28;5091522;28;20100;-66
2022/10/16 08:51:05;;;;;;;11.52;5.82;;;;;;;8.51;58.20;100430.69;5090850;28;20082;-63
2022/10/16 08:53:38;;;;;;;18.63;11.20;;;;;;;8.61;58.36;100435.59;5089798;28;20101;-65
2022/10/16 08:56:05;;;;;;;11.90;6.00;;;;;;;8.71;57.72;100433.41;5092143;28;20044;-64
2022/10/16 08:58:31;;;;;;;10.45;5.53;;;;;;;8.78;57.28;100434.22;5090614;28;20048;-63
2022/10/16 09:00:59;;;;;;;11.93;5.57;;;;;;;8.86;56.95;100436.69;5090586;28;20044;-66
2022/10/16 09:04:02;;;;;;;11.93;5.50;;;;;;;8.93;56.98;100443.81;5074087;28;20040;-64
2022/10/16 09:06:39;;;;;;;9.57;6.03;;;;;;;9.00;56.57;100431.41;5091776;28;20130;-62
2022/10/16 09:09:23;;;;;;;10.98;5.57;;;;;;;9.07;56.87;100438.34;5092567;28;20404;-64
2022/10/16 09:12:00;;;;;;;11.50;6.07;;;;;;;9.17;56.32;100434.50;5091942;28;20130;-63
2022/10/16 09:14:36;;;;;;;14.27;5.63;;;;;;;9.24;55.44;100436.13;5089538;28;20056;-65
2022/10/16 09:17:23;;;;;;;13.18;5.38;;;;;;;9.32;55.56;100427.16;5091797;28;20048;-63
2022/10/16 09:19:58;;;;;;;12.07;5.53;;;;;;;9.32;55.43;100424.53;5090682;28;20032;-65
2022/10/16 09:22:28;;;;;;;9.10;5.32;;;;;;;9.39;54.53;100432.47;5073684;28;20052;-64
2022/10/16 09:24:55;;;;;;;10.10;4.97;;;;;;;9.48;53.58;100437.34;5090382;28;20515;-64
2022/10/16 09:27:21;;;;;;;7.88;4.75;;;;;;;9.54;53.19;100428.59;5090607;28;20048;-64
2022/10/16 09:29:47;;;;;;;10.52;4.53;;;;;;;9.64;52.81;100422.88;5089878;28;20036;-65
2022/10/16 09:32:16;;;;;;;9.43;5.07;;;;;;;9.71;53.45;100429.00;5090399;28;20043;-67
2022/10/16 09:34:45;;;;;;;14.43;5.22;;;;;;;9.79;53.50;100422.66;5091326;28;20035;-65
2022/10/16 09:37:14;;;;;;;9.25;4.20;;;;;;;9.85;52.33;100421.00;5090107;28;20048;-63
2022/10/16 09:39:47;;;;;;;7.60;4.45;;;;;;;9.90;51.63;100424.66;5090140;28;20043;-64
2022/10/16 09:42:33;;;;;;;7.43;4.00;;;;;;;9.93;51.33;100418.16;5091429;28;20043;-62
2022/10/16 09:44:58;;;;;;;8.68;4.03;;;;;;;9.96;51.29;100413.25;5090907;28;20040;-62
2022/10/16 09:47:26;;;;;;;6.55;3.55;;;;;;;9.99;51.15;100415.47;5091439;28;20519;-64
2022/10/16 09:50:02;;;;;;;10.27;4.07;;;;;;;10.01;50.64;100402.84;5089586;28;20050;-63
2022/10/16 09:52:29;;;;;;;10.18;3.72;;;;;;;10.09;51.25;100400.97;5091152;28;20036;-65
2022/10/16 09:54:57;;;;;;;8.43;4.03;;;;;;;10.14;50.31;100401.16;5089711;28;20050;-65
2022/10/16 09:57:24;;;;;;;7.45;3.47;;;;;;;10.15;50.42;100402.81;5091174;28;20047;-64
2022/10/16 09:59:52;;;;;;;5.30;3.42;;;;;;;10.21;50.23;100405.44;5089635;28;20042;-63
2022/10/16 10:02:20;;;;;;;9.27;3.50;;;;;;;10.23;50.04;100402.56;5089843;28;20040;-66
2022/10/16 10:04:53;;;;;;;8.10;3.47;;;;;;;10.20;50.45;100395.03;5089481;28;20070;-63
2022/10/16 10:07:42;;;;;;;6.45;3.60;;;;;;;10.30;50.31;100408.69;5069827;28;20482;-67
2022/10/16 10:10:22;;;;;;;8.73;3.83;;;;;;;10.35;50.03;100402.75;5070670;28;20111;-68
2022/10/16 10:12:47;;;;;;;8.02;3.63;;;;;;;10.35;50.25;100408.88;5070075;28;20344;-68
2022/10/16 10:15:21;;;;;;;6.60;3.45;;;;;;;10.41;50.06;100400.06;5052473;28;20456;-67
2022/10/16 10:17:57;;;;;;;12.63;3.65;;;;;;;10.46;49.79;100394.94;5088389;28;20101;-68
2022/10/16 10:20:30;;;;;;;6.60;4.20;;;;;;;10.46;48.45;100394.13;5089566;28;20385;-68
2022/10/16 10:22:56;;;;;;;6.78;3.58;;;;;;;10.46;48.84;100394.94;5090386;28;20062;-67
2022/10/16 10:25:59;;;;;;;7.47;4.00;;;;;;;10.49;49.14;100393.69;5072967;28;20505;-68
2022/10/16 10:28:37;;;;;;;5.28;3.67;;;;;;;10.48;48.65;100391.28;5088773;28;20509;-68
2022/10/16 10:31:09;;;;;;;7.65;3.78;;;;;;;10.49;49.27;100391.06;5089175;28;20482;-69
2022/10/16 10:33:53;;;;;;;6.55;3.63;;;;;;;10.48;48.66;100399.22;5089421;28;20138;-69
2022/10/16 10:36:24;;;;;;;8.85;3.78;;;;;;;10.46;49.24;100388.81;5089149;28;20101;-69
2022/10/16 10:38:56;;;;;;;6.13;3.30;;;;;;;10.48;49.10;100388.63;5091334;28;20056;-70
2022/10/16 10:41:49;;;;;;;7.60;4.13;;;;;;;10.53;48.59;100391.44;5090561;28;20040;-68
2022/10/16 10:44:27;;;;;;;9.82;3.90;;;;;;;10.56;48.84;100389.19;5090047;28;20056;-70
2022/10/16 10:46:58;;;;;;;9.35;4.82;;;;;;;10.58;48.74;100391.63;5090563;28;20044;-71
2022/10/16 10:49:39;;;;;;;7.18;3.60;;;;;;;10.56;48.66;100383.88;5089250;28;20044;-69
2022/10/16 10:52:29;;;;;;;6.82;4.57;;;;;;;10.59;49.08;100382.63;5090193;28;20074;-62
2022/10/16 10:55:03;;;;;;;10.13;3.92;;;;;;;10.57;48.79;100379.41;5072469;28;20139;-64
2022/10/16 10:57:38;;;;;;;7.95;4.00;;;;;;;10.53;49.52;100370.22;5089050;28;20122;-63
2022/10/16 11:00:14;;;;;;;8.32;4.10;;;;;;;10.56;48.79;100383.88;5090904;28;20055;-62
2022/10/16 11:02:47;;;;;;;9.30;3.88;;;;;;;10.57;49.61;100379.41;5089053;28;20055;-63
2022/10/16 11:05:19;;;;;;;6.65;3.67;;;;;;;10.57;49.57;100387.34;5089031;28;20517;-63
2022/10/16 11:07:58;;;;;;;7.07;4.18;;;;;;;10.58;49.43;100386.31;5090453;28;20076;-63
2022/10/16 11:10:29;;;;;;;9.00;4.03;;;;;;;10.57;49.30;100382.06;5090425;28;20497;-63
2022/10/16 11:13:50;;;;;;;6.75;4.05;;;;;;;10.60;49.35;100382.44;5068647;28;20541;-62
2022/10/16 11:16:22;;;;;;;9.02;3.92;;;;;;;10.51;49.71;100377.59;5025676;28;20041;-63
2022/10/16 11:19:10;;;;;;;11.43;5.22;;;;;;;10.55;49.98;100376.94;5072383;28;20060;-62
2022/10/16 11:21:54;;;;;;;7.30;3.97;;;;;;;10.53;49.85;100360.47;5076170;28;20101;-62
2022/10/16 11:24:34;;;;;;;5.82;3.92;;;;;;;10.61;49.61;100375.28;5092961;28;20053;-63
2022/10/16 11:27:04;;;;;;;8.02;4.18;;;;;;;10.60;49.65;100376.31;5092158;28;20043;-63
2022/10/16 11:29:30;;;;;;;5.30;3.67;;;;;;;10.64;49.48;100374.84;5092815;28;20504;-63
2022/10/16 11:32:33;;;;;;;7.72;4.28;;;;;;;10.66;49.18;100378.13;5092375;28;20489;-64
2022/10/16 11:35:11;;;;;;;9.18;4.40;;;;;;;10.62;49.57;100380.38;5092509;28;20047;-62
2022/10/16 11:37:41;;;;;;;6.40;4.10;;;;;;;10.63;48.96;100373.25;5072395;28;20505;-62
2022/10/16 11:40:28;;;;;;;8.38;4.00;;;;;;;10.63;49.35;100368.75;5072426;28;20060;-62
2022/10/16 11:42:59;;;;;;;7.75;4.03;;;;;;;10.62;49.42;100364.47;5068296;28;20040;-63